createdAt,value
2023-03-29T00:03:47.572Z,100837.25
2023-03-29T00:09:15.949Z,100837.13
2023-03-29T00:14:42.614Z,100821.28
2023-03-29T00:20:10.503Z,100834.28
2023-03-29T00:25:37.870Z,100829.44
2023-03-29T00:31:11.801Z,100828.47
2023-03-29T00:36:40.759Z,100828.59
2023-03-29T00:42:13.547Z,100828.75
2023-03-29T00:47:45.905Z,100820.72
2023-03-29T00:53:22.029Z,100825.22
2023-03-29T00:59:10.430Z,100815.97
2023-03-29T01:04:54.583Z,100814.03
2023-03-29T01:10:31.956Z,100801.91
2023-03-29T01:16:02.086Z,100794.94
2023-03-29T01:21:45.479Z,100789.72
2023-03-29T01:27:22.976Z,100785.72
2023-03-29T01:32:59.962Z,100790.22
2023-03-29T01:39:03.815Z,100783.94
2023-03-29T01:44:43.324Z,100778.97
2023-03-29T01:50:19.275Z,100783.81
2023-03-29T01:55:54.980Z,100781.44
2023-03-29T02:01:29.363Z,100777.91
2023-03-29T02:06:59.764Z,100775.97
2023-03-29T02:12:27.265Z,100779.28
2023-03-29T02:17:54.981Z,100774.25
2023-03-29T02:23:27.613Z,100767.75
2023-03-29T02:28:56.159Z,100770.03
2023-03-29T02:34:27.276Z,100766.88
2023-03-29T02:39:55.302Z,100766.28
2023-03-29T02:45:24.402Z,100750.09
2023-03-29T02:50:56.698Z,100750.88
2023-03-29T02:56:24.595Z,100744.53
2023-03-29T03:01:53.021Z,100744.38
2023-03-29T03:07:21.955Z,100744.81
2023-03-29T03:12:50.168Z,100734.56
2023-03-29T03:18:17.948Z,100731.25
2023-03-29T03:23:46.522Z,100716.63
2023-03-29T03:29:16.118Z,100709.34
2023-03-29T03:35:05.899Z,100706.94
2023-03-29T03:40:33.740Z,100700.38
2023-03-29T03:46:01.686Z,100686.06
2023-03-29T03:51:31.571Z,100688.22
2023-03-29T03:56:59.325Z,100684.28
2023-03-29T04:02:39.568Z,100684.00
2023-03-29T04:08:08.034Z,100685.84
2023-03-29T04:14:03.112Z,100681.75
2023-03-29T04:20:01.626Z,100682.38
2023-03-29T04:25:33.573Z,100664.88
2023-03-29T04:31:37.948Z,100670.38
2023-03-29T04:37:25.442Z,100667.44
2023-03-29T04:42:54.832Z,100670.91
2023-03-29T04:48:22.802Z,100670.34
2023-03-29T04:53:51.716Z,100673.72
2023-03-29T04:59:19.375Z,100668.66
2023-03-29T05:04:47.699Z,100670.69
2023-03-29T05:10:17.970Z,100653.22
2023-03-29T05:15:45.660Z,100653.91
2023-03-29T05:21:14.144Z,100639.75
2023-03-29T05:26:45.248Z,100650.53
2023-03-29T05:32:13.890Z,100641.00
2023-03-29T05:37:42.157Z,100645.16
2023-03-29T05:43:09.796Z,100647.78
2023-03-29T05:48:37.715Z,100640.44
2023-03-29T05:54:05.999Z,100632.94
2023-03-29T05:59:35.308Z,100638.94
2023-03-29T06:05:04.936Z,100631.13
2023-03-29T06:10:57.559Z,100627.16
2023-03-29T06:16:42.837Z,100618.53
2023-03-29T06:22:14.752Z,100629.31
2023-03-29T06:27:43.445Z,100625.97
2023-03-29T06:33:13.477Z,100640.69
2023-03-29T06:38:47.583Z,100632.47
2023-03-29T06:44:40.842Z,100625.44
2023-03-29T06:50:18.652Z,100623.22
2023-03-29T06:56:12.070Z,100621.50
2023-03-29T07:01:43.503Z,100609.09
2023-03-29T07:07:20.678Z,100611.38
2023-03-29T07:12:53.312Z,100607.63
2023-03-29T07:18:21.401Z,100615.22
2023-03-29T07:23:49.000Z,100618.75
2023-03-29T07:29:16.936Z,100606.31
2023-03-29T07:34:44.502Z,100616.81
2023-03-29T07:40:35.132Z,100615.59
2023-03-29T07:46:21.247Z,100614.00
2023-03-29T07:51:50.105Z,100607.09
2023-03-29T07:57:18.110Z,100610.06
2023-03-29T08:02:52.930Z,100611.88
2023-03-29T08:08:21.317Z,100607.97
2023-03-29T08:13:56.635Z,100596.50
2023-03-29T08:19:51.274Z,100606.34
2023-03-29T08:25:22.207Z,100582.53
2023-03-29T08:30:53.773Z,100592.09
2023-03-29T08:36:22.260Z,100582.06
2023-03-29T08:41:58.613Z,100580.63
2023-03-29T08:47:54.800Z,100574.25
2023-03-29T08:53:37.232Z,100577.94
2023-03-29T08:59:30.943Z,100579.78
2023-03-29T09:05:18.666Z,100570.63
2023-03-29T09:11:23.172Z,100565.16
2023-03-29T09:17:10.579Z,100560.38
2023-03-29T09:22:44.450Z,100552.72
2023-03-29T09:28:22.637Z,100558.06
2023-03-29T09:34:09.629Z,100530.59
2023-03-29T09:39:53.615Z,100526.31
2023-03-29T09:45:24.447Z,100529.78
2023-03-29T09:50:54.015Z,100527.78
2023-03-29T09:56:21.831Z,100515.09
2023-03-29T10:02:09.995Z,100512.88
2023-03-29T10:07:47.627Z,100503.88
2023-03-29T10:13:50.974Z,100493.81
2023-03-29T10:19:36.397Z,100485.72
2023-03-29T10:25:05.261Z,100482.63
2023-03-29T10:30:37.621Z,100479.38
2023-03-29T10:36:07.644Z,100481.78
2023-03-29T10:41:36.079Z,100472.78
2023-03-29T10:47:19.819Z,100459.19
2023-03-29T10:52:48.542Z,100466.91
2023-03-29T10:58:15.826Z,100456.81
2023-03-29T11:04:16.429Z,100445.25
2023-03-29T11:09:57.477Z,100432.81
2023-03-29T11:15:48.737Z,100434.16
2023-03-29T11:21:45.055Z,100429.84
2023-03-29T11:27:17.363Z,100412.22
2023-03-29T11:33:09.391Z,100410.72
2023-03-29T11:38:48.426Z,100401.59
2023-03-29T11:44:21.299Z,100388.13
2023-03-29T11:49:54.915Z,100378.22
2023-03-29T11:55:29.446Z,100345.34
2023-03-29T12:01:04.933Z,100356.75
2023-03-29T12:06:45.880Z,100344.41
2023-03-29T12:12:46.836Z,100343.47
2023-03-29T12:18:40.183Z,100340.09
2023-03-29T12:24:13.297Z,100334.31
2023-03-29T12:29:52.865Z,100333.66
2023-03-29T12:35:34.742Z,100321.84
2023-03-29T12:41:23.699Z,100313.16
2023-03-29T12:47:00.670Z,100309.06
2023-03-29T12:52:33.430Z,100296.88
2023-03-29T12:58:07.409Z,100296.88
2023-03-29T13:03:52.071Z,100297.63
2023-03-29T13:09:23.813Z,100295.06
2023-03-29T13:15:17.194Z,100282.06
2023-03-29T13:20:45.091Z,100272.03
2023-03-29T13:26:27.547Z,100267.22
2023-03-29T13:32:13.694Z,100267.34
2023-03-29T13:38:00.435Z,100276.25
2023-03-29T13:43:51.431Z,100253.22
2023-03-29T13:49:26.720Z,100262.34
2023-03-29T13:55:02.111Z,100254.66
2023-03-29T14:00:42.276Z,100244.88
2023-03-29T14:06:13.110Z,100248.56
2023-03-29T14:11:46.158Z,100241.00
2023-03-29T14:17:21.578Z,100241.50
2023-03-29T14:22:50.328Z,100237.84
2023-03-29T14:28:31.002Z,100258.53
2023-03-29T14:34:01.238Z,100254.94
2023-03-29T14:39:29.381Z,100248.56
2023-03-29T14:45:06.613Z,100240.63
2023-03-29T14:50:36.171Z,100222.34
2023-03-29T14:56:08.707Z,100217.75
2023-03-29T15:01:44.936Z,100201.66
2023-03-29T15:07:12.583Z,100209.72
2023-03-29T15:12:43.939Z,100197.56
2023-03-29T15:18:17.362Z,100200.28
2023-03-29T15:23:56.133Z,100185.25
2023-03-29T15:29:26.304Z,100181.50
2023-03-29T15:35:06.691Z,100183.41
2023-03-29T15:40:34.628Z,100209.72
2023-03-29T15:46:03.312Z,100213.97
2023-03-29T15:51:31.830Z,100212.81
2023-03-29T15:57:07.871Z,100192.53
2023-03-29T16:02:36.298Z,100192.31
2023-03-29T16:08:04.197Z,100202.56
2023-03-29T16:13:32.155Z,100214.63
2023-03-29T16:18:59.929Z,100212.78
2023-03-29T16:24:33.280Z,100206.63
2023-03-29T16:30:00.820Z,100209.81
2023-03-29T16:35:32.443Z,100223.28
2023-03-29T16:41:00.814Z,100214.59
2023-03-29T16:46:29.218Z,100210.09
2023-03-29T16:51:56.370Z,100198.59
2023-03-29T16:57:24.067Z,100202.75
2023-03-29T17:02:51.847Z,100201.22
2023-03-29T17:08:21.716Z,100200.09
2023-03-29T17:13:50.986Z,100202.09
2023-03-29T17:19:19.661Z,100196.69
2023-03-29T17:24:48.238Z,100202.13
2023-03-29T17:30:15.699Z,100191.00
2023-03-29T17:35:44.396Z,100188.84
2023-03-29T17:41:11.660Z,100189.00
2023-03-29T17:46:39.143Z,100190.00
2023-03-29T17:52:06.798Z,100186.00
2023-03-29T17:57:34.257Z,100193.66
2023-03-29T18:03:02.062Z,100194.47
2023-03-29T18:08:31.071Z,100208.59
2023-03-29T18:14:00.923Z,100199.19
2023-03-29T18:19:28.903Z,100200.09
2023-03-29T18:24:56.850Z,100204.09
2023-03-29T18:30:24.912Z,100207.16
2023-03-29T18:35:53.043Z,100214.28
2023-03-29T18:41:21.744Z,100196.28
2023-03-29T18:46:50.156Z,100195.91
2023-03-29T18:52:17.646Z,100200.63
2023-03-29T18:57:45.182Z,100199.38
2023-03-29T19:03:13.243Z,100191.19
2023-03-29T19:08:42.447Z,100201.22
2023-03-29T19:14:11.406Z,100187.69
2023-03-29T19:19:40.026Z,100192.50
2023-03-29T19:25:08.162Z,100192.63
2023-03-29T19:30:36.728Z,100183.78
2023-03-29T19:36:04.027Z,100175.97
2023-03-29T19:41:32.244Z,100182.97
2023-03-29T19:47:00.424Z,100177.94
2023-03-29T19:52:28.916Z,100163.53
2023-03-29T19:57:55.848Z,100172.97
2023-03-29T20:03:23.155Z,100155.41
2023-03-29T20:08:53.116Z,100154.59
2023-03-29T20:14:20.262Z,100152.00
2023-03-29T20:19:48.381Z,100143.44
2023-03-29T20:25:16.075Z,100151.81
2023-03-29T20:30:43.124Z,100147.66
2023-03-29T20:36:11.627Z,100141.50
2023-03-29T20:41:39.051Z,100147.78
2023-03-29T20:47:08.782Z,100144.75
2023-03-29T20:52:36.251Z,100139.00
2023-03-29T20:58:03.109Z,100133.78
2023-03-29T21:03:30.260Z,100125.09
2023-03-29T21:08:57.712Z,100119.63
2023-03-29T21:14:26.880Z,100107.75
2023-03-29T21:19:55.115Z,100106.59
2023-03-29T21:25:22.572Z,100100.34
2023-03-29T21:30:50.420Z,100088.50
2023-03-29T21:36:18.708Z,100085.56
2023-03-29T21:41:46.587Z,100084.03
2023-03-29T21:47:14.351Z,100082.81
2023-03-29T21:52:41.286Z,100072.94
2023-03-29T21:58:08.118Z,100066.63
2023-03-29T22:03:35.582Z,100079.59
2023-03-29T22:09:03.886Z,100074.09
2023-03-29T22:14:35.431Z,100064.44
2023-03-29T22:20:04.933Z,100055.34
2023-03-29T22:25:32.614Z,100045.81
2023-03-29T22:31:09.855Z,100036.63
2023-03-29T22:36:38.141Z,100032.00
2023-03-29T22:42:05.740Z,100022.09
2023-03-29T22:47:34.454Z,100022.69
2023-03-29T22:53:01.970Z,100014.00
2023-03-29T22:58:29.834Z,100016.81
2023-03-29T23:03:57.565Z,100010.06
2023-03-29T23:09:24.682Z,100018.91
2023-03-29T23:14:53.418Z,100014.38
2023-03-29T23:20:21.522Z,100006.84
2023-03-29T23:25:49.956Z,100004.28
2023-03-29T23:31:20.580Z,100003.16
2023-03-29T23:36:47.730Z,100008.72
2023-03-29T23:42:16.128Z,100002.38
2023-03-29T23:47:45.910Z,99996.34
2023-03-29T23:53:14.250Z,99990.00
2023-03-29T23:58:42.120Z,99977.88
